sensor_id;sensor_type;location;lat;lon;timestamp;P1;durP1;ratioP1;P2;durP2;ratioP2
60979;SDS011;46851;49.160;8.980;2023-12-20T00:01:31;6.82;;;4.47;;
60979;SDS011;46851;49.160;8.980;2023-12-20T00:03:57;7.95;;;4.63;;
60979;SDS011;46851;49.160;8.980;2023-12-20T00:06:23;6.43;;;4.53;;
60979;SDS011;46851;49.160;8.980;2023-12-20T00:08:49;5.40;;;4.18;;
60979;SDS011;46851;49.160;8.980;2023-12-20T00:11:15;7.03;;;4.57;;
60979;SDS011;46851;49.160;8.980;2023-12-20T00:13:41;7.97;;;5.03;;
60979;SDS011;46851;49.160;8.980;2023-12-20T00:16:07;7.57;;;4.88;;
60979;SDS011;46851;49.160;8.980;2023-12-20T00:18:33;7.60;;;4.43;;
60979;SDS011;46851;49.160;8.980;2023-12-20T00:20:59;8.90;;;5.07;;
60979;SDS011;46851;49.160;8.980;2023-12-20T00:23:25;8.57;;;5.57;;
60979;SDS011;46851;49.160;8.980;2023-12-20T00:25:51;9.85;;;5.72;;
60979;SDS011;46851;49.160;8.980;2023-12-20T00:28:17;7.88;;;4.95;;
60979;SDS011;46851;49.160;8.980;2023-12-20T00:30:43;11.52;;;6.07;;
60979;SDS011;46851;49.160;8.980;2023-12-20T00:33:09;9.40;;;5.47;;
60979;SDS011;46851;49.160;8.980;2023-12-20T00:35:35;8.65;;;5.15;;
60979;SDS011;46851;49.160;8.980;2023-12-20T00:38:01;10.27;;;5.80;;
60979;SDS011;46851;49.160;8.980;2023-12-20T00:40:27;10.05;;;5.53;;
60979;SDS011;46851;49.160;8.980;2023-12-20T00:42:53;11.15;;;6.38;;
60979;SDS011;46851;49.160;8.980;2023-12-20T00:45:19;12.05;;;6.68;;
60979;SDS011;46851;49.160;8.980;2023-12-20T00:47:45;11.45;;;5.90;;
60979;SDS011;46851;49.160;8.980;2023-12-20T00:50:11;12.23;;;5.63;;
60979;SDS011;46851;49.160;8.980;2023-12-20T00:52:37;12.40;;;6.45;;
60979;SDS011;46851;49.160;8.980;2023-12-20T00:55:03;8.98;;;5.50;;
60979;SDS011;46851;49.160;8.980;2023-12-20T00:57:29;11.52;;;6.18;;
60979;SDS011;46851;49.160;8.980;2023-12-20T00:59:57;11.57;;;6.35;;
60979;SDS011;46851;49.160;8.980;2023-12-20T01:02:23;8.02;;;5.50;;
60979;SDS011;46851;49.160;8.980;2023-12-20T01:04:49;9.80;;;5.50;;
60979;SDS011;46851;49.160;8.980;2023-12-20T01:07:15;11.00;;;6.80;;
60979;SDS011;46851;49.160;8.980;2023-12-20T01:09:41;11.13;;;5.95;;
60979;SDS011;46851;49.160;8.980;2023-12-20T01:12:07;11.85;;;5.80;;
60979;SDS011;46851;49.160;8.980;2023-12-20T01:14:33;9.95;;;5.75;;
60979;SDS011;46851;49.160;8.980;2023-12-20T01:16:59;8.40;;;5.32;;
60979;SDS011;46851;49.160;8.980;2023-12-20T01:19:25;9.88;;;5.50;;
60979;SDS011;46851;49.160;8.980;2023-12-20T01:21:52;8.23;;;5.38;;
60979;SDS011;46851;49.160;8.980;2023-12-20T01:24:18;8.23;;;5.13;;
60979;SDS011;46851;49.160;8.980;2023-12-20T01:26:44;8.35;;;5.30;;
60979;SDS011;46851;49.160;8.980;2023-12-20T01:29:10;9.27;;;5.35;;
60979;SDS011;46851;49.160;8.980;2023-12-20T01:31:37;7.75;;;4.85;;
60979;SDS011;46851;49.160;8.980;2023-12-20T01:34:03;10.50;;;4.93;;
60979;SDS011;46851;49.160;8.980;2023-12-20T01:36:29;8.25;;;5.10;;
60979;SDS011;46851;49.160;8.980;2023-12-20T01:38:55;8.13;;;4.80;;
60979;SDS011;46851;49.160;8.980;2023-12-20T01:41:21;9.50;;;5.55;;
60979;SDS011;46851;49.160;8.980;2023-12-20T01:43:47;9.15;;;4.78;;
60979;SDS011;46851;49.160;8.980;2023-12-20T01:46:13;7.95;;;4.97;;
60979;SDS011;46851;49.160;8.980;2023-12-20T01:48:39;8.82;;;5.15;;
60979;SDS011;46851;49.160;8.980;2023-12-20T01:51:05;9.63;;;5.68;;
60979;SDS011;46851;49.160;8.980;2023-12-20T01:53:31;10.00;;;5.07;;
60979;SDS011;46851;49.160;8.980;2023-12-20T01:55:57;9.95;;;4.90;;
60979;SDS011;46851;49.160;8.980;2023-12-20T01:58:24;9.60;;;5.40;;
60979;SDS011;46851;49.160;8.980;2023-12-20T02:00:50;8.15;;;4.88;;
60979;SDS011;46851;49.160;8.980;2023-12-20T02:03:16;7.75;;;4.85;;
60979;SDS011;46851;49.160;8.980;2023-12-20T02:05:42;7.72;;;5.20;;
60979;SDS011;46851;49.160;8.980;2023-12-20T02:08:08;7.45;;;3.85;;
60979;SDS011;46851;49.160;8.980;2023-12-20T02:10:34;6.55;;;4.35;;
60979;SDS011;46851;49.160;8.980;2023-12-20T02:13:00;6.90;;;4.63;;
60979;SDS011;46851;49.160;8.980;2023-12-20T02:15:26;5.65;;;3.80;;
60979;SDS011;46851;49.160;8.980;2023-12-20T02:17:52;7.07;;;4.50;;
60979;SDS011;46851;49.160;8.980;2023-12-20T02:20:19;6.88;;;4.50;;
60979;SDS011;46851;49.160;8.980;2023-12-20T02:22:45;7.20;;;4.90;;
60979;SDS011;46851;49.160;8.980;2023-12-20T02:25:11;6.63;;;4.43;;
60979;SDS011;46851;49.160;8.980;2023-12-20T02:27:37;7.10;;;4.32;;
60979;SDS011;46851;49.160;8.980;2023-12-20T02:30:04;7.35;;;5.18;;
60979;SDS011;46851;49.160;8.980;2023-12-20T02:32:30;8.23;;;4.93;;
60979;SDS011;46851;49.160;8.980;2023-12-20T02:34:57;8.35;;;4.43;;
60979;SDS011;46851;49.160;8.980;2023-12-20T02:37:23;6.18;;;4.45;;
60979;SDS011;46851;49.160;8.980;2023-12-20T02:39:49;10.07;;;4.70;;
60979;SDS011;46851;49.160;8.980;2023-12-20T02:42:15;5.95;;;4.03;;
60979;SDS011;46851;49.160;8.980;2023-12-20T02:44:41;7.50;;;4.65;;
60979;SDS011;46851;49.160;8.980;2023-12-20T02:47:07;6.13;;;4.30;;
60979;SDS011;46851;49.160;8.980;2023-12-20T02:49:33;7.53;;;4.50;;
60979;SDS011;46851;49.160;8.980;2023-12-20T02:51:59;6.63;;;4.68;;
60979;SDS011;46851;49.160;8.980;2023-12-20T02:54:25;7.63;;;5.00;;
60979;SDS011;46851;49.160;8.980;2023-12-20T02:56:51;7.30;;;4.85;;
60979;SDS011;46851;49.160;8.980;2023-12-20T02:59:17;8.07;;;4.88;;
60979;SDS011;46851;49.160;8.980;2023-12-20T03:01:44;8.05;;;4.38;;
60979;SDS011;46851;49.160;8.980;2023-12-20T03:04:10;5.88;;;4.38;;
60979;SDS011;46851;49.160;8.980;2023-12-20T03:06:36;7.88;;;4.47;;
60979;SDS011;46851;49.160;8.980;2023-12-20T03:09:02;7.45;;;4.68;;
60979;SDS011;46851;49.160;8.980;2023-12-20T03:11:29;7.55;;;4.53;;
60979;SDS011;46851;49.160;8.980;2023-12-20T03:13:55;6.82;;;3.92;;
60979;SDS011;46851;49.160;8.980;2023-12-20T03:16:21;6.68;;;4.40;;
60979;SDS011;46851;49.160;8.980;2023-12-20T03:18:47;7.93;;;4.47;;
60979;SDS011;46851;49.160;8.980;2023-12-20T03:21:13;9.15;;;4.82;;
60979;SDS011;46851;49.160;8.980;2023-12-20T03:23:39;8.05;;;4.63;;
60979;SDS011;46851;49.160;8.980;2023-12-20T03:26:09;7.38;;;4.93;;
60979;SDS011;46851;49.160;8.980;2023-12-20T03:28:35;7.28;;;4.95;;
60979;SDS011;46851;49.160;8.980;2023-12-20T03:31:02;5.85;;;4.45;;
60979;SDS011;46851;49.160;8.980;2023-12-20T03:33:28;5.90;;;4.60;;
60979;SDS011;46851;49.160;8.980;2023-12-20T03:35:54;8.90;;;5.00;;
60979;SDS011;46851;49.160;8.980;2023-12-20T03:38:21;7.97;;;4.90;;
60979;SDS011;46851;49.160;8.980;2023-12-20T03:40:48;10.63;;;5.07;;
60979;SDS011;46851;49.160;8.980;2023-12-20T03:43:14;5.32;;;4.00;;
60979;SDS011;46851;49.160;8.980;2023-12-20T03:45:41;5.72;;;4.28;;
60979;SDS011;46851;49.160;8.980;2023-12-20T03:48:07;7.03;;;4.45;;
60979;SDS011;46851;49.160;8.980;2023-12-20T03:50:34;7.28;;;4.70;;
60979;SDS011;46851;49.160;8.980;2023-12-20T03:53:00;7.78;;;4.13;;
60979;SDS011;46851;49.160;8.980;2023-12-20T03:55:26;6.88;;;4.78;;
60979;SDS011;46851;49.160;8.980;2023-12-20T03:57:52;5.97;;;4.30;;
60979;SDS011;46851;49.160;8.980;2023-12-20T04:00:18;6.15;;;4.07;;
60979;SDS011;46851;49.160;8.980;2023-12-20T04:02:44;5.97;;;4.20;;
60979;SDS011;46851;49.160;8.980;2023-12-20T04:05:10;6.15;;;4.03;;
60979;SDS011;46851;49.160;8.980;2023-12-20T04:07:36;5.43;;;4.07;;
60979;SDS011;46851;49.160;8.980;2023-12-20T04:10:03;5.90;;;3.72;;
60979;SDS011;46851;49.160;8.980;2023-12-20T04:12:29;6.28;;;4.43;;
60979;SDS011;46851;49.160;8.980;2023-12-20T04:14:55;6.63;;;4.18;;
60979;SDS011;46851;49.160;8.980;2023-12-20T04:17:21;6.70;;;4.50;;
60979;SDS011;46851;49.160;8.980;2023-12-20T04:19:50;8.15;;;5.15;;
60979;SDS011;46851;49.160;8.980;2023-12-20T04:24:45;6.53;;;4.50;;
60979;SDS011;46851;49.160;8.980;2023-12-20T04:30:00;8.07;;;4.38;;
60979;SDS011;46851;49.160;8.980;2023-12-20T04:32:33;7.50;;;4.60;;
60979;SDS011;46851;49.160;8.980;2023-12-20T04:37:26;6.78;;;4.78;;
60979;SDS011;46851;49.160;8.980;2023-12-20T04:39:53;7.70;;;4.72;;
60979;SDS011;46851;49.160;8.980;2023-12-20T04:42:19;8.95;;;5.13;;
60979;SDS011;46851;49.160;8.980;2023-12-20T04:44:45;8.85;;;5.20;;
60979;SDS011;46851;49.160;8.980;2023-12-20T04:47:11;11.32;;;5.28;;
60979;SDS011;46851;49.160;8.980;2023-12-20T04:49:37;7.15;;;4.78;;
60979;SDS011;46851;49.160;8.980;2023-12-20T04:52:03;7.20;;;4.82;;
60979;SDS011;46851;49.160;8.980;2023-12-20T04:54:30;12.07;;;5.93;;
60979;SDS011;46851;49.160;8.980;2023-12-20T04:56:56;7.68;;;5.45;;
60979;SDS011;46851;49.160;8.980;2023-12-20T04:59:22;7.63;;;5.22;;
60979;SDS011;46851;49.160;8.980;2023-12-20T05:01:48;7.13;;;5.15;;
60979;SDS011;46851;49.160;8.980;2023-12-20T05:04:14;9.52;;;5.43;;
60979;SDS011;46851;49.160;8.980;2023-12-20T05:06:40;7.82;;;5.25;;
60979;SDS011;46851;49.160;8.980;2023-12-20T05:09:06;8.10;;;5.35;;
60979;SDS011;46851;49.160;8.980;2023-12-20T05:11:32;10.30;;;5.70;;
60979;SDS011;46851;49.160;8.980;2023-12-20T05:13:58;9.77;;;5.65;;
60979;SDS011;46851;49.160;8.980;2023-12-20T05:16:24;10.02;;;6.05;;
60979;SDS011;46851;49.160;8.980;2023-12-20T05:18:50;7.78;;;5.25;;
60979;SDS011;46851;49.160;8.980;2023-12-20T05:21:17;9.25;;;6.75;;
60979;SDS011;46851;49.160;8.980;2023-12-20T05:23:43;8.48;;;5.18;;
60979;SDS011;46851;49.160;8.980;2023-12-20T05:26:09;9.02;;;5.55;;
60979;SDS011;46851;49.160;8.980;2023-12-20T05:28:35;7.82;;;5.38;;
60979;SDS011;46851;49.160;8.980;2023-12-20T05:31:01;7.72;;;5.65;;
60979;SDS011;46851;49.160;8.980;2023-12-20T05:33:27;6.88;;;5.05;;
60979;SDS011;46851;49.160;8.980;2023-12-20T05:35:53;10.23;;;5.47;;
60979;SDS011;46851;49.160;8.980;2023-12-20T05:38:19;7.35;;;5.15;;
60979;SDS011;46851;49.160;8.980;2023-12-20T05:40:45;7.38;;;5.13;;
60979;SDS011;46851;49.160;8.980;2023-12-20T05:43:11;7.32;;;5.05;;
60979;SDS011;46851;49.160;8.980;2023-12-20T05:45:37;8.27;;;5.28;;
60979;SDS011;46851;49.160;8.980;2023-12-20T05:48:03;10.90;;;5.30;;
60979;SDS011;46851;49.160;8.980;2023-12-20T05:50:29;8.60;;;5.35;;
60979;SDS011;46851;49.160;8.980;2023-12-20T05:52:55;10.90;;;5.97;;
60979;SDS011;46851;49.160;8.980;2023-12-20T05:55:21;13.32;;;6.65;;
60979;SDS011;46851;49.160;8.980;2023-12-20T05:57:47;16.40;;;7.28;;
60979;SDS011;46851;49.160;8.980;2023-12-20T06:00:13;15.00;;;7.55;;
60979;SDS011;46851;49.160;8.980;2023-12-20T06:02:40;9.40;;;6.75;;
60979;SDS011;46851;49.160;8.980;2023-12-20T06:05:06;9.60;;;6.68;;
60979;SDS011;46851;49.160;8.980;2023-12-20T06:07:32;14.05;;;7.60;;
60979;SDS011;46851;49.160;8.980;2023-12-20T06:09:58;14.27;;;7.38;;
60979;SDS011;46851;49.160;8.980;2023-12-20T06:12:24;12.20;;;7.20;;
60979;SDS011;46851;49.160;8.980;2023-12-20T06:14:52;12.25;;;7.70;;
60979;SDS011;46851;49.160;8.980;2023-12-20T06:17:18;11.18;;;7.13;;
60979;SDS011;46851;49.160;8.980;2023-12-20T06:19:44;13.30;;;8.32;;
60979;SDS011;46851;49.160;8.980;2023-12-20T06:22:13;14.48;;;8.80;;
60979;SDS011;46851;49.160;8.980;2023-12-20T06:24:39;23.80;;;9.02;;
60979;SDS011;46851;49.160;8.980;2023-12-20T06:27:05;22.75;;;12.18;;
60979;SDS011;46851;49.160;8.980;2023-12-20T06:29:31;21.50;;;10.05;;
60979;SDS011;46851;49.160;8.980;2023-12-20T06:31:57;19.75;;;9.32;;
60979;SDS011;46851;49.160;8.980;2023-12-20T06:34:23;16.23;;;9.07;;
60979;SDS011;46851;49.160;8.980;2023-12-20T06:36:49;13.93;;;8.65;;
60979;SDS011;46851;49.160;8.980;2023-12-20T06:39:15;22.05;;;10.85;;
60979;SDS011;46851;49.160;8.980;2023-12-20T06:41:41;21.73;;;9.82;;
60979;SDS011;46851;49.160;8.980;2023-12-20T06:44:08;45.85;;;14.35;;
60979;SDS011;46851;49.160;8.980;2023-12-20T06:46:34;54.58;;;17.73;;
60979;SDS011;46851;49.160;8.980;2023-12-20T06:49:00;63.40;;;17.58;;
60979;SDS011;46851;49.160;8.980;2023-12-20T06:51:27;36.65;;;13.05;;
60979;SDS011;46851;49.160;8.980;2023-12-20T06:53:53;46.95;;;15.48;;
60979;SDS011;46851;49.160;8.980;2023-12-20T06:56:19;67.47;;;18.80;;
60979;SDS011;46851;49.160;8.980;2023-12-20T06:58:45;78.25;;;21.20;;
60979;SDS011;46851;49.160;8.980;2023-12-20T07:01:12;33.22;;;11.57;;
60979;SDS011;46851;49.160;8.980;2023-12-20T07:03:38;25.70;;;11.23;;
60979;SDS011;46851;49.160;8.980;2023-12-20T07:06:05;37.28;;;12.65;;
60979;SDS011;46851;49.160;8.980;2023-12-20T07:08:31;19.77;;;10.13;;
60979;SDS011;46851;49.160;8.980;2023-12-20T07:10:57;35.85;;;13.27;;
60979;SDS011;46851;49.160;8.980;2023-12-20T07:13:23;41.63;;;16.33;;
60979;SDS011;46851;49.160;8.980;2023-12-20T07:15:49;73.40;;;22.85;;
60979;SDS011;46851;49.160;8.980;2023-12-20T07:18:15;51.53;;;14.75;;
60979;SDS011;46851;49.160;8.980;2023-12-20T07:20:42;29.33;;;10.20;;
60979;SDS011;46851;49.160;8.980;2023-12-20T07:23:08;20.77;;;8.35;;
60979;SDS011;46851;49.160;8.980;2023-12-20T07:25:34;21.85;;;8.65;;
60979;SDS011;46851;49.160;8.980;2023-12-20T07:28:00;20.67;;;10.45;;
60979;SDS011;46851;49.160;8.980;2023-12-20T07:30:26;23.33;;;10.68;;
60979;SDS011;46851;49.160;8.980;2023-12-20T07:32:53;15.48;;;8.63;;
60979;SDS011;46851;49.160;8.980;2023-12-20T07:35:18;17.60;;;8.40;;
60979;SDS011;46851;49.160;8.980;2023-12-20T07:37:44;19.20;;;7.80;;
60979;SDS011;46851;49.160;8.980;2023-12-20T07:40:10;30.13;;;8.93;;
60979;SDS011;46851;49.160;8.980;2023-12-20T07:42:36;41.60;;;13.38;;
60979;SDS011;46851;49.160;8.980;2023-12-20T07:45:03;36.58;;;12.48;;
60979;SDS011;46851;49.160;8.980;2023-12-20T07:47:29;26.17;;;10.70;;
60979;SDS011;46851;49.160;8.980;2023-12-20T07:49:55;18.02;;;7.32;;
60979;SDS011;46851;49.160;8.980;2023-12-20T07:52:21;18.50;;;7.90;;
60979;SDS011;46851;49.160;8.980;2023-12-20T07:54:47;20.08;;;7.32;;
60979;SDS011;46851;49.160;8.980;2023-12-20T07:57:13;15.80;;;7.85;;
60979;SDS011;46851;49.160;8.980;2023-12-20T07:59:39;9.25;;;5.95;;
60979;SDS011;46851;49.160;8.980;2023-12-20T08:02:05;10.93;;;6.15;;
60979;SDS011;46851;49.160;8.980;2023-12-20T08:04:32;11.57;;;6.53;;
60979;SDS011;46851;49.160;8.980;2023-12-20T08:06:58;9.25;;;5.80;;
60979;SDS011;46851;49.160;8.980;2023-12-20T08:09:25;10.02;;;6.22;;
60979;SDS011;46851;49.160;8.980;2023-12-20T08:11:51;9.38;;;5.95;;
60979;SDS011;46851;49.160;8.980;2023-12-20T08:14:17;9.35;;;5.57;;
60979;SDS011;46851;49.160;8.980;2023-12-20T08:16:43;9.63;;;5.63;;
60979;SDS011;46851;49.160;8.980;2023-12-20T08:19:09;9.73;;;5.70;;
60979;SDS011;46851;49.160;8.980;2023-12-20T08:21:35;8.05;;;5.57;;
60979;SDS011;46851;49.160;8.980;2023-12-20T08:24:01;10.27;;;4.97;;
60979;SDS011;46851;49.160;8.980;2023-12-20T08:26:27;7.60;;;5.40;;
60979;SDS011;46851;49.160;8.980;2023-12-20T08:28:53;6.97;;;4.95;;
60979;SDS011;46851;49.160;8.980;2023-12-20T08:37:13;8.60;;;4.53;;
60979;SDS011;46851;49.160;8.980;2023-12-20T08:39:39;7.53;;;4.13;;
60979;SDS011;46851;49.160;8.980;2023-12-20T08:42:05;18.52;;;6.50;;
60979;SDS011;46851;49.160;8.980;2023-12-20T08:44:31;6.75;;;4.93;;
60979;SDS011;46851;49.160;8.980;2023-12-20T08:46:57;7.22;;;4.93;;
60979;SDS011;46851;49.160;8.980;2023-12-20T08:49:23;6.07;;;4.00;;
60979;SDS011;46851;49.160;8.980;2023-12-20T08:51:50;7.20;;;4.00;;
60979;SDS011;46851;49.160;8.980;2023-12-20T08:54:16;5.82;;;4.22;;
60979;SDS011;46851;49.160;8.980;2023-12-20T08:56:44;7.63;;;4.20;;
60979;SDS011;46851;49.160;8.980;2023-12-20T08:59:11;5.40;;;3.70;;
60979;SDS011;46851;49.160;8.980;2023-12-20T09:01:37;6.63;;;3.97;;
60979;SDS011;46851;49.160;8.980;2023-12-20T09:04:03;5.80;;;3.88;;
60979;SDS011;46851;49.160;8.980;2023-12-20T09:06:31;5.03;;;3.28;;
60979;SDS011;46851;49.160;8.980;2023-12-20T09:08:57;4.50;;;3.63;;
60979;SDS011;46851;49.160;8.980;2023-12-20T09:11:25;4.05;;;2.80;;
60979;SDS011;46851;49.160;8.980;2023-12-20T09:13:51;4.43;;;3.20;;
60979;SDS011;46851;49.160;8.980;2023-12-20T09:16:17;4.47;;;3.00;;
60979;SDS011;46851;49.160;8.980;2023-12-20T09:18:43;5.50;;;2.80;;
60979;SDS011;46851;49.160;8.980;2023-12-20T09:21:09;3.42;;;2.58;;
60979;SDS011;46851;49.160;8.980;2023-12-20T09:23:35;3.78;;;2.75;;
60979;SDS011;46851;49.160;8.980;2023-12-20T09:26:02;4.93;;;2.45;;
60979;SDS011;46851;49.160;8.980;2023-12-20T09:28:28;5.63;;;2.30;;
60979;SDS011;46851;49.160;8.980;2023-12-20T09:30:54;5.18;;;2.47;;
60979;SDS011;46851;49.160;8.980;2023-12-20T09:33:20;4.25;;;2.42;;
60979;SDS011;46851;49.160;8.980;2023-12-20T09:35:46;3.75;;;2.63;;
60979;SDS011;46851;49.160;8.980;2023-12-20T09:38:12;5.82;;;2.53;;
60979;SDS011;46851;49.160;8.980;2023-12-20T09:40:41;5.13;;;2.40;;
60979;SDS011;46851;49.160;8.980;2023-12-20T09:43:10;5.75;;;2.78;;
60979;SDS011;46851;49.160;8.980;2023-12-20T09:45:37;6.28;;;3.33;;
60979;SDS011;46851;49.160;8.980;2023-12-20T09:48:05;7.53;;;3.08;;
60979;SDS011;46851;49.160;8.980;2023-12-20T09:50:31;4.43;;;2.80;;
60979;SDS011;46851;49.160;8.980;2023-12-20T09:52:58;7.38;;;2.97;;
60979;SDS011;46851;49.160;8.980;2023-12-20T09:55:27;8.90;;;2.88;;
60979;SDS011;46851;49.160;8.980;2023-12-20T09:57:53;6.55;;;2.67;;
60979;SDS011;46851;49.160;8.980;2023-12-20T10:00:19;9.10;;;2.70;;
60979;SDS011;46851;49.160;8.980;2023-12-20T10:02:50;4.15;;;2.20;;
60979;SDS011;46851;49.160;8.980;2023-12-20T10:05:16;3.80;;;2.17;;
60979;SDS011;46851;49.160;8.980;2023-12-20T10:07:46;3.63;;;1.80;;
60979;SDS011;46851;49.160;8.980;2023-12-20T10:10:15;5.43;;;2.72;;
60979;SDS011;46851;49.160;8.980;2023-12-20T10:12:42;13.05;;;3.17;;
60979;SDS011;46851;49.160;8.980;2023-12-20T10:15:26;10.20;;;3.00;;
60979;SDS011;46851;49.160;8.980;2023-12-20T10:17:52;3.05;;;1.80;;
60979;SDS011;46851;49.160;8.980;2023-12-20T10:20:19;4.80;;;2.00;;
60979;SDS011;46851;49.160;8.980;2023-12-20T10:22:45;3.22;;;1.40;;
60979;SDS011;46851;49.160;8.980;2023-12-20T10:25:12;4.68;;;1.58;;
60979;SDS011;46851;49.160;8.980;2023-12-20T10:27:38;4.45;;;1.60;;
60979;SDS011;46851;49.160;8.980;2023-12-20T10:30:04;5.05;;;2.03;;
60979;SDS011;46851;49.160;8.980;2023-12-20T10:32:30;6.03;;;1.50;;
60979;SDS011;46851;49.160;8.980;2023-12-20T10:34:57;5.40;;;1.73;;
60979;SDS011;46851;49.160;8.980;2023-12-20T10:37:24;2.53;;;1.25;;
60979;SDS011;46851;49.160;8.980;2023-12-20T10:39:51;4.68;;;2.03;;
60979;SDS011;46851;49.160;8.980;2023-12-20T10:42:20;5.70;;;1.30;;
60979;SDS011;46851;49.160;8.980;2023-12-20T10:44:47;4.05;;;1.48;;
60979;SDS011;46851;49.160;8.980;2023-12-20T10:47:14;8.73;;;1.77;;
60979;SDS011;46851;49.160;8.980;2023-12-20T10:49:40;5.60;;;1.70;;
60979;SDS011;46851;49.160;8.980;2023-12-20T10:52:07;7.30;;;2.60;;
60979;SDS011;46851;49.160;8.980;2023-12-20T10:54:34;7.28;;;1.70;;
60979;SDS011;46851;49.160;8.980;2023-12-20T10:57:00;4.40;;;2.20;;
60979;SDS011;46851;49.160;8.980;2023-12-20T10:59:29;7.93;;;2.47;;
60979;SDS011;46851;49.160;8.980;2023-12-20T11:01:58;4.70;;;1.50;;
60979;SDS011;46851;49.160;8.980;2023-12-20T11:04:35;7.47;;;1.95;;
60979;SDS011;46851;49.160;8.980;2023-12-20T11:07:07;9.10;;;1.60;;
60979;SDS011;46851;49.160;8.980;2023-12-20T11:09:35;6.70;;;2.30;;
60979;SDS011;46851;49.160;8.980;2023-12-20T11:14:46;5.13;;;2.00;;
60979;SDS011;46851;49.160;8.980;2023-12-20T11:17:13;8.35;;;2.20;;
60979;SDS011;46851;49.160;8.980;2023-12-20T11:22:35;7.07;;;2.05;;
60979;SDS011;46851;49.160;8.980;2023-12-20T11:25:03;6.18;;;2.30;;
60979;SDS011;46851;49.160;8.980;2023-12-20T11:27:30;6.90;;;2.17;;
60979;SDS011;46851;49.160;8.980;2023-12-20T11:29:56;6.15;;;2.10;;
60979;SDS011;46851;49.160;8.980;2023-12-20T11:34:56;6.45;;;2.42;;
60979;SDS011;46851;49.160;8.980;2023-12-20T11:37:22;8.07;;;2.50;;
60979;SDS011;46851;49.160;8.980;2023-12-20T11:40:01;5.68;;;2.10;;
60979;SDS011;46851;49.160;8.980;2023-12-20T11:42:27;5.05;;;2.20;;
60979;SDS011;46851;49.160;8.980;2023-12-20T11:44:53;8.90;;;2.70;;
60979;SDS011;46851;49.160;8.980;2023-12-20T11:47:19;11.25;;;2.58;;
60979;SDS011;46851;49.160;8.980;2023-12-20T11:49:48;9.65;;;2.92;;
60979;SDS011;46851;49.160;8.980;2023-12-20T11:52:16;11.27;;;3.25;;
60979;SDS011;46851;49.160;8.980;2023-12-20T11:54:42;9.80;;;2.78;;
60979;SDS011;46851;49.160;8.980;2023-12-20T11:57:08;9.02;;;2.97;;
60979;SDS011;46851;49.160;8.980;2023-12-20T11:59:34;7.28;;;2.53;;
60979;SDS011;46851;49.160;8.980;2023-12-20T12:02:00;5.68;;;2.28;;
60979;SDS011;46851;49.160;8.980;2023-12-20T12:04:29;10.32;;;2.50;;
60979;SDS011;46851;49.160;8.980;2023-12-20T12:06:55;8.30;;;2.60;;
60979;SDS011;46851;49.160;8.980;2023-12-20T12:09:21;8.23;;;2.50;;
60979;SDS011;46851;49.160;8.980;2023-12-20T12:11:46;7.97;;;2.92;;
60979;SDS011;46851;49.160;8.980;2023-12-20T12:14:13;11.35;;;2.83;;
60979;SDS011;46851;49.160;8.980;2023-12-20T12:16:41;8.65;;;2.72;;
60979;SDS011;46851;49.160;8.980;2023-12-20T12:19:19;11.52;;;5.22;;
60979;SDS011;46851;49.160;8.980;2023-12-20T12:21:46;11.57;;;3.60;;
60979;SDS011;46851;49.160;8.980;2023-12-20T12:24:12;8.00;;;3.45;;
60979;SDS011;46851;49.160;8.980;2023-12-20T12:26:38;5.55;;;2.53;;
60979;SDS011;46851;49.160;8.980;2023-12-20T12:29:07;6.93;;;2.47;;
60979;SDS011;46851;49.160;8.980;2023-12-20T12:34:00;8.82;;;2.50;;
60979;SDS011;46851;49.160;8.980;2023-12-20T12:36:27;12.18;;;2.92;;
60979;SDS011;46851;49.160;8.980;2023-12-20T12:38:56;10.30;;;2.88;;
60979;SDS011;46851;49.160;8.980;2023-12-20T12:41:22;11.05;;;3.05;;
60979;SDS011;46851;49.160;8.980;2023-12-20T12:43:48;9.73;;;2.47;;
60979;SDS011;46851;49.160;8.980;2023-12-20T12:46:14;9.85;;;2.95;;
60979;SDS011;46851;49.160;8.980;2023-12-20T12:48:40;13.95;;;3.60;;
60979;SDS011;46851;49.160;8.980;2023-12-20T12:51:06;17.88;;;4.28;;
60979;SDS011;46851;49.160;8.980;2023-12-20T12:53:37;9.40;;;4.07;;
60979;SDS011;46851;49.160;8.980;2023-12-20T12:56:03;16.25;;;3.67;;
60979;SDS011;46851;49.160;8.980;2023-12-20T12:58:29;11.80;;;3.50;;
60979;SDS011;46851;49.160;8.980;2023-12-20T13:00:55;15.48;;;3.55;;
60979;SDS011;46851;49.160;8.980;2023-12-20T13:03:21;13.15;;;3.90;;
60979;SDS011;46851;49.160;8.980;2023-12-20T13:05:47;8.70;;;3.05;;
60979;SDS011;46851;49.160;8.980;2023-12-20T13:08:14;25.58;;;5.72;;
60979;SDS011;46851;49.160;8.980;2023-12-20T13:10:40;15.68;;;4.20;;
60979;SDS011;46851;49.160;8.980;2023-12-20T13:13:06;7.30;;;2.85;;
60979;SDS011;46851;49.160;8.980;2023-12-20T13:15:32;8.50;;;2.42;;
60979;SDS011;46851;49.160;8.980;2023-12-20T13:17:58;7.15;;;2.95;;
60979;SDS011;46851;49.160;8.980;2023-12-20T13:20:25;9.63;;;3.13;;
60979;SDS011;46851;49.160;8.980;2023-12-20T13:22:51;6.93;;;2.72;;
60979;SDS011;46851;49.160;8.980;2023-12-20T13:25:17;11.70;;;2.92;;
60979;SDS011;46851;49.160;8.980;2023-12-20T13:27:43;9.65;;;2.65;;
60979;SDS011;46851;49.160;8.980;2023-12-20T13:30:09;7.40;;;2.22;;
60979;SDS011;46851;49.160;8.980;2023-12-20T13:32:35;10.48;;;2.50;;
60979;SDS011;46851;49.160;8.980;2023-12-20T13:35:01;6.38;;;2.35;;
60979;SDS011;46851;49.160;8.980;2023-12-20T13:37:27;7.03;;;2.40;;
60979;SDS011;46851;49.160;8.980;2023-12-20T13:39:54;8.23;;;2.30;;
60979;SDS011;46851;49.160;8.980;2023-12-20T13:42:20;8.40;;;2.45;;
60979;SDS011;46851;49.160;8.980;2023-12-20T13:44:46;20.20;;;2.72;;
60979;SDS011;46851;49.160;8.980;2023-12-20T13:47:12;24.13;;;3.20;;
60979;SDS011;46851;49.160;8.980;2023-12-20T13:49:38;11.77;;;2.55;;
60979;SDS011;46851;49.160;8.980;2023-12-20T13:52:04;7.97;;;2.97;;
60979;SDS011;46851;49.160;8.980;2023-12-20T13:54:30;12.35;;;2.83;;
60979;SDS011;46851;49.160;8.980;2023-12-20T13:56:56;8.23;;;2.50;;
60979;SDS011;46851;49.160;8.980;2023-12-20T13:59:22;11.02;;;2.55;;
60979;SDS011;46851;49.160;8.980;2023-12-20T14:01:49;9.57;;;3.38;;
60979;SDS011;46851;49.160;8.980;2023-12-20T14:04:15;13.07;;;4.22;;
60979;SDS011;46851;49.160;8.980;2023-12-20T14:06:41;12.27;;;3.42;;
60979;SDS011;46851;49.160;8.980;2023-12-20T14:09:07;18.17;;;4.13;;
60979;SDS011;46851;49.160;8.980;2023-12-20T14:11:33;18.98;;;3.30;;
60979;SDS011;46851;49.160;8.980;2023-12-20T14:14:06;12.07;;;3.35;;
60979;SDS011;46851;49.160;8.980;2023-12-20T14:16:32;14.65;;;3.05;;
60979;SDS011;46851;49.160;8.980;2023-12-20T14:18:58;12.13;;;3.28;;
60979;SDS011;46851;49.160;8.980;2023-12-20T14:21:24;14.48;;;3.45;;
60979;SDS011;46851;49.160;8.980;2023-12-20T14:23:50;9.75;;;3.65;;
60979;SDS011;46851;49.160;8.980;2023-12-20T14:26:19;11.93;;;3.85;;
60979;SDS011;46851;49.160;8.980;2023-12-20T14:28:45;13.00;;;2.92;;
60979;SDS011;46851;49.160;8.980;2023-12-20T14:31:11;15.18;;;3.15;;
60979;SDS011;46851;49.160;8.980;2023-12-20T14:33:37;9.73;;;2.83;;
60979;SDS011;46851;49.160;8.980;2023-12-20T14:36:04;9.85;;;2.65;;
60979;SDS011;46851;49.160;8.980;2023-12-20T14:38:30;14.48;;;3.63;;
60979;SDS011;46851;49.160;8.980;2023-12-20T14:40:56;6.75;;;2.95;;
60979;SDS011;46851;49.160;8.980;2023-12-20T14:43:23;10.18;;;2.58;;
60979;SDS011;46851;49.160;8.980;2023-12-20T14:45:49;9.88;;;2.63;;
60979;SDS011;46851;49.160;8.980;2023-12-20T14:48:16;7.18;;;2.72;;
60979;SDS011;46851;49.160;8.980;2023-12-20T14:50:43;5.65;;;2.58;;
60979;SDS011;46851;49.160;8.980;2023-12-20T14:53:09;11.02;;;2.45;;
60979;SDS011;46851;49.160;8.980;2023-12-20T14:55:35;7.72;;;2.20;;
60979;SDS011;46851;49.160;8.980;2023-12-20T14:58:01;8.35;;;2.95;;
60979;SDS011;46851;49.160;8.980;2023-12-20T15:00:27;6.72;;;2.58;;
60979;SDS011;46851;49.160;8.980;2023-12-20T15:02:54;6.38;;;2.72;;